sensor_id;sensor_type;location;lat;lon;timestamp;P1;durP1;ratioP1;P2;durP2;ratioP2
41099;SDS011;26844;53.686;-6.346;2024-03-02T00:01:50;2.47;;;2.38;;
41099;SDS011;26844;53.686;-6.346;2024-03-02T00:04:15;2.50;;;2.40;;
41099;SDS011;26844;53.686;-6.346;2024-03-02T00:06:40;2.40;;;2.35;;
41099;SDS011;26844;53.686;-6.346;2024-03-02T00:09:06;2.92;;;2.83;;
41099;SDS011;26844;53.686;-6.346;2024-03-02T00:11:34;2.47;;;2.38;;
41099;SDS011;26844;53.686;-6.346;2024-03-02T00:13:59;2.30;;;2.30;;
41099;SDS011;26844;53.686;-6.346;2024-03-02T00:16:29;2.50;;;2.40;;
41099;SDS011;26844;53.686;-6.346;2024-03-02T00:18:54;2.20;;;2.20;;
41099;SDS011;26844;53.686;-6.346;2024-03-02T00:21:20;2.20;;;2.20;;
41099;SDS011;26844;53.686;-6.346;2024-03-02T00:23:47;2.50;;;2.40;;
41099;SDS011;26844;53.686;-6.346;2024-03-02T00:26:13;2.45;;;2.38;;
41099;SDS011;26844;53.686;-6.346;2024-03-02T00:28:39;2.20;;;2.20;;
41099;SDS011;26844;53.686;-6.346;2024-03-02T00:31:11;2.65;;;2.55;;
41099;SDS011;26844;53.686;-6.346;2024-03-02T00:33:39;3.05;;;2.95;;
41099;SDS011;26844;53.686;-6.346;2024-03-02T00:36:05;2.92;;;2.83;;
41099;SDS011;26844;53.686;-6.346;2024-03-02T00:38:31;2.70;;;2.60;;
41099;SDS011;26844;53.686;-6.346;2024-03-02T00:40:59;2.70;;;2.60;;
41099;SDS011;26844;53.686;-6.346;2024-03-02T00:46:12;2.60;;;2.50;;
41099;SDS011;26844;53.686;-6.346;2024-03-02T00:48:39;3.03;;;2.92;;
41099;SDS011;26844;53.686;-6.346;2024-03-02T00:51:04;2.65;;;2.55;;
41099;SDS011;26844;53.686;-6.346;2024-03-02T00:53:30;2.78;;;2.67;;
41099;SDS011;26844;53.686;-6.346;2024-03-02T00:55:56;2.40;;;2.30;;
41099;SDS011;26844;53.686;-6.346;2024-03-02T00:58:22;2.55;;;2.45;;
41099;SDS011;26844;53.686;-6.346;2024-03-02T01:00:47;2.35;;;2.30;;
41099;SDS011;26844;53.686;-6.346;2024-03-02T01:03:12;2.72;;;2.63;;
41099;SDS011;26844;53.686;-6.346;2024-03-02T01:05:41;2.25;;;2.25;;
41099;SDS011;26844;53.686;-6.346;2024-03-02T01:08:07;2.03;;;2.03;;
41099;SDS011;26844;53.686;-6.346;2024-03-02T01:10:32;2.20;;;2.20;;
41099;SDS011;26844;53.686;-6.346;2024-03-02T01:12:57;2.35;;;2.30;;
41099;SDS011;26844;53.686;-6.346;2024-03-02T01:15:23;2.50;;;2.40;;
41099;SDS011;26844;53.686;-6.346;2024-03-02T01:17:48;2.38;;;2.30;;
41099;SDS011;26844;53.686;-6.346;2024-03-02T01:20:13;2.50;;;2.40;;
41099;SDS011;26844;53.686;-6.346;2024-03-02T01:22:39;2.38;;;2.30;;
41099;SDS011;26844;53.686;-6.346;2024-03-02T01:25:04;2.67;;;2.58;;
41099;SDS011;26844;53.686;-6.346;2024-03-02T01:27:29;3.08;;;2.97;;
41099;SDS011;26844;53.686;-6.346;2024-03-02T01:29:55;2.80;;;2.70;;
41099;SDS011;26844;53.686;-6.346;2024-03-02T01:32:20;2.67;;;2.58;;
41099;SDS011;26844;53.686;-6.346;2024-03-02T01:34:45;2.80;;;2.70;;
41099;SDS011;26844;53.686;-6.346;2024-03-02T01:37:11;2.72;;;2.63;;
41099;SDS011;26844;53.686;-6.346;2024-03-02T01:39:36;2.83;;;2.72;;
41099;SDS011;26844;53.686;-6.346;2024-03-02T01:42:01;3.00;;;2.90;;
41099;SDS011;26844;53.686;-6.346;2024-03-02T01:44:27;3.22;;;3.13;;
41099;SDS011;26844;53.686;-6.346;2024-03-02T01:46:52;3.40;;;3.30;;
41099;SDS011;26844;53.686;-6.346;2024-03-02T01:49:17;3.60;;;3.50;;
41099;SDS011;26844;53.686;-6.346;2024-03-02T01:51:43;3.67;;;3.58;;
41099;SDS011;26844;53.686;-6.346;2024-03-02T01:54:09;4.18;;;4.07;;
41099;SDS011;26844;53.686;-6.346;2024-03-02T01:56:34;4.20;;;4.10;;
41099;SDS011;26844;53.686;-6.346;2024-03-02T01:58:59;4.55;;;4.45;;
41099;SDS011;26844;53.686;-6.346;2024-03-02T02:01:24;4.97;;;4.78;;
41099;SDS011;26844;53.686;-6.346;2024-03-02T02:03:50;5.00;;;4.80;;
41099;SDS011;26844;53.686;-6.346;2024-03-02T02:06:15;5.50;;;5.30;;
41099;SDS011;26844;53.686;-6.346;2024-03-02T02:08:40;5.30;;;5.10;;
41099;SDS011;26844;53.686;-6.346;2024-03-02T02:11:06;5.53;;;5.32;;
41099;SDS011;26844;53.686;-6.346;2024-03-02T02:13:31;5.75;;;5.55;;
41099;SDS011;26844;53.686;-6.346;2024-03-02T02:16:04;5.88;;;5.68;;
41099;SDS011;26844;53.686;-6.346;2024-03-02T02:18:29;5.57;;;5.38;;
41099;SDS011;26844;53.686;-6.346;2024-03-02T02:20:54;5.22;;;5.03;;
41099;SDS011;26844;53.686;-6.346;2024-03-02T02:23:19;5.65;;;5.45;;
41099;SDS011;26844;53.686;-6.346;2024-03-02T02:25:45;6.03;;;5.82;;
41099;SDS011;26844;53.686;-6.346;2024-03-02T02:28:10;5.95;;;5.75;;
41099;SDS011;26844;53.686;-6.346;2024-03-02T02:30:35;5.30;;;5.10;;
41099;SDS011;26844;53.686;-6.346;2024-03-02T02:33:00;5.30;;;5.10;;
41099;SDS011;26844;53.686;-6.346;2024-03-02T02:35:26;5.35;;;5.15;;
41099;SDS011;26844;53.686;-6.346;2024-03-02T02:37:52;5.43;;;5.22;;
41099;SDS011;26844;53.686;-6.346;2024-03-02T02:40:17;5.10;;;4.90;;
41099;SDS011;26844;53.686;-6.346;2024-03-02T02:42:44;5.35;;;5.15;;
41099;SDS011;26844;53.686;-6.346;2024-03-02T02:45:09;4.97;;;4.78;;
41099;SDS011;26844;53.686;-6.346;2024-03-02T02:47:35;4.68;;;4.57;;
41099;SDS011;26844;53.686;-6.346;2024-03-02T02:50:04;4.93;;;4.72;;
41099;SDS011;26844;53.686;-6.346;2024-03-02T02:52:36;4.47;;;4.38;;
41099;SDS011;26844;53.686;-6.346;2024-03-02T02:55:06;4.07;;;3.97;;
41099;SDS011;26844;53.686;-6.346;2024-03-02T02:57:32;3.90;;;3.80;;
41099;SDS011;26844;53.686;-6.346;2024-03-02T03:00:10;4.43;;;4.32;;
41099;SDS011;26844;53.686;-6.346;2024-03-02T03:02:42;4.30;;;4.20;;
41099;SDS011;26844;53.686;-6.346;2024-03-02T03:05:08;4.13;;;4.03;;
41099;SDS011;26844;53.686;-6.346;2024-03-02T03:07:33;4.30;;;4.20;;
41099;SDS011;26844;53.686;-6.346;2024-03-02T03:10:00;4.93;;;4.72;;
41099;SDS011;26844;53.686;-6.346;2024-03-02T03:12:25;5.03;;;4.82;;
41099;SDS011;26844;53.686;-6.346;2024-03-02T03:14:50;5.22;;;5.03;;
41099;SDS011;26844;53.686;-6.346;2024-03-02T03:17:16;5.35;;;5.15;;
41099;SDS011;26844;53.686;-6.346;2024-03-02T03:19:42;5.30;;;5.10;;
41099;SDS011;26844;53.686;-6.346;2024-03-02T03:22:07;5.90;;;5.70;;
41099;SDS011;26844;53.686;-6.346;2024-03-02T03:24:33;5.70;;;5.50;;
41099;SDS011;26844;53.686;-6.346;2024-03-02T03:26:58;5.80;;;5.60;;
41099;SDS011;26844;53.686;-6.346;2024-03-02T03:29:23;5.55;;;5.35;;
41099;SDS011;26844;53.686;-6.346;2024-03-02T03:31:49;5.80;;;5.60;;
41099;SDS011;26844;53.686;-6.346;2024-03-02T03:34:14;5.60;;;5.40;;
41099;SDS011;26844;53.686;-6.346;2024-03-02T03:36:41;5.60;;;5.40;;
41099;SDS011;26844;53.686;-6.346;2024-03-02T03:39:06;5.43;;;5.22;;
41099;SDS011;26844;53.686;-6.346;2024-03-02T03:41:31;5.53;;;5.32;;
41099;SDS011;26844;53.686;-6.346;2024-03-02T03:43:56;5.05;;;4.85;;
41099;SDS011;26844;53.686;-6.346;2024-03-02T03:46:22;5.35;;;5.15;;
41099;SDS011;26844;53.686;-6.346;2024-03-02T03:48:47;4.90;;;4.70;;
41099;SDS011;26844;53.686;-6.346;2024-03-02T03:51:12;4.97;;;4.78;;
41099;SDS011;26844;53.686;-6.346;2024-03-02T03:53:37;5.30;;;5.10;;
41099;SDS011;26844;53.686;-6.346;2024-03-02T03:56:03;4.90;;;4.70;;
41099;SDS011;26844;53.686;-6.346;2024-03-02T03:58:28;5.45;;;5.25;;
41099;SDS011;26844;53.686;-6.346;2024-03-02T04:00:55;5.45;;;5.25;;
41099;SDS011;26844;53.686;-6.346;2024-03-02T04:03:20;5.22;;;5.03;;
41099;SDS011;26844;53.686;-6.346;2024-03-02T04:05:45;5.05;;;4.85;;
41099;SDS011;26844;53.686;-6.346;2024-03-02T04:08:10;5.40;;;5.20;;
41099;SDS011;26844;53.686;-6.346;2024-03-02T04:10:36;5.80;;;5.60;;
41099;SDS011;26844;53.686;-6.346;2024-03-02T04:13:02;5.00;;;4.80;;
41099;SDS011;26844;53.686;-6.346;2024-03-02T04:15:27;4.93;;;4.72;;
41099;SDS011;26844;53.686;-6.346;2024-03-02T04:17:52;5.20;;;5.00;;
41099;SDS011;26844;53.686;-6.346;2024-03-02T04:20:17;5.80;;;5.60;;
41099;SDS011;26844;53.686;-6.346;2024-03-02T04:22:43;6.13;;;5.93;;
41099;SDS011;26844;53.686;-6.346;2024-03-02T04:25:08;6.18;;;5.97;;
41099;SDS011;26844;53.686;-6.346;2024-03-02T04:27:34;6.32;;;6.13;;
41099;SDS011;26844;53.686;-6.346;2024-03-02T04:29:59;5.90;;;5.70;;
41099;SDS011;26844;53.686;-6.346;2024-03-02T04:32:25;6.05;;;5.85;;
41099;SDS011;26844;53.686;-6.346;2024-03-02T04:34:51;6.70;;;6.50;;
41099;SDS011;26844;53.686;-6.346;2024-03-02T04:37:16;6.55;;;6.35;;
41099;SDS011;26844;53.686;-6.346;2024-03-02T04:39:41;6.53;;;6.32;;
41099;SDS011;26844;53.686;-6.346;2024-03-02T04:42:06;6.85;;;6.65;;
41099;SDS011;26844;53.686;-6.346;2024-03-02T04:44:32;6.45;;;6.25;;
41099;SDS011;26844;53.686;-6.346;2024-03-02T04:46:57;7.03;;;6.82;;
41099;SDS011;26844;53.686;-6.346;2024-03-02T04:49:23;6.18;;;5.97;;
41099;SDS011;26844;53.686;-6.346;2024-03-02T04:51:48;6.75;;;6.55;;
41099;SDS011;26844;53.686;-6.346;2024-03-02T04:54:13;6.72;;;6.53;;
41099;SDS011;26844;53.686;-6.346;2024-03-02T04:56:39;6.80;;;6.60;;
41099;SDS011;26844;53.686;-6.346;2024-03-02T04:59:15;6.72;;;6.53;;
41099;SDS011;26844;53.686;-6.346;2024-03-02T05:01:40;7.20;;;6.93;;
41099;SDS011;26844;53.686;-6.346;2024-03-02T05:04:05;6.30;;;6.10;;
41099;SDS011;26844;53.686;-6.346;2024-03-02T05:06:31;6.65;;;6.45;;
41099;SDS011;26844;53.686;-6.346;2024-03-02T05:08:56;6.72;;;6.53;;
41099;SDS011;26844;53.686;-6.346;2024-03-02T05:11:21;6.93;;;6.72;;
41099;SDS011;26844;53.686;-6.346;2024-03-02T05:14:02;7.20;;;6.93;;
41099;SDS011;26844;53.686;-6.346;2024-03-02T05:16:27;7.05;;;6.85;;
41099;SDS011;26844;53.686;-6.346;2024-03-02T05:18:52;6.82;;;6.63;;
41099;SDS011;26844;53.686;-6.346;2024-03-02T05:21:18;7.25;;;6.95;;
41099;SDS011;26844;53.686;-6.346;2024-03-02T05:23:43;7.25;;;6.97;;
41099;SDS011;26844;53.686;-6.346;2024-03-02T05:26:09;6.90;;;6.70;;
41099;SDS011;26844;53.686;-6.346;2024-03-02T05:28:36;7.40;;;7.10;;
41099;SDS011;26844;53.686;-6.346;2024-03-02T05:31:01;7.13;;;6.90;;
41099;SDS011;26844;53.686;-6.346;2024-03-02T05:33:27;6.88;;;6.68;;
41099;SDS011;26844;53.686;-6.346;2024-03-02T05:35:53;7.53;;;7.22;;
41099;SDS011;26844;53.686;-6.346;2024-03-02T05:38:18;6.93;;;6.72;;
41099;SDS011;26844;53.686;-6.346;2024-03-02T05:40:44;7.60;;;7.30;;
41099;SDS011;26844;53.686;-6.346;2024-03-02T05:43:09;7.63;;;7.32;;
41099;SDS011;26844;53.686;-6.346;2024-03-02T05:45:34;7.20;;;6.93;;
41099;SDS011;26844;53.686;-6.346;2024-03-02T05:47:59;7.40;;;7.10;;
41099;SDS011;26844;53.686;-6.346;2024-03-02T05:50:25;7.35;;;7.05;;
41099;SDS011;26844;53.686;-6.346;2024-03-02T05:52:50;7.05;;;6.85;;
41099;SDS011;26844;53.686;-6.346;2024-03-02T05:55:15;7.38;;;7.07;;
41099;SDS011;26844;53.686;-6.346;2024-03-02T05:57:41;7.90;;;7.60;;
41099;SDS011;26844;53.686;-6.346;2024-03-02T06:00:09;7.28;;;6.97;;
41099;SDS011;26844;53.686;-6.346;2024-03-02T06:02:34;7.22;;;6.97;;
41099;SDS011;26844;53.686;-6.346;2024-03-02T06:05:02;7.03;;;6.82;;
41099;SDS011;26844;53.686;-6.346;2024-03-02T06:07:29;7.10;;;6.90;;
41099;SDS011;26844;53.686;-6.346;2024-03-02T06:09:54;7.53;;;7.22;;
41099;SDS011;26844;53.686;-6.346;2024-03-02T06:12:19;7.20;;;6.93;;
41099;SDS011;26844;53.686;-6.346;2024-03-02T06:14:45;7.43;;;7.13;;
41099;SDS011;26844;53.686;-6.346;2024-03-02T06:17:10;7.43;;;7.13;;
41099;SDS011;26844;53.686;-6.346;2024-03-02T06:19:35;7.22;;;6.97;;
41099;SDS011;26844;53.686;-6.346;2024-03-02T06:22:01;6.88;;;6.68;;
41099;SDS011;26844;53.686;-6.346;2024-03-02T06:24:26;7.32;;;7.03;;
41099;SDS011;26844;53.686;-6.346;2024-03-02T06:26:51;7.28;;;6.97;;
41099;SDS011;26844;53.686;-6.346;2024-03-02T06:29:17;7.10;;;6.88;;
41099;SDS011;26844;53.686;-6.346;2024-03-02T06:31:42;7.22;;;6.93;;
41099;SDS011;26844;53.686;-6.346;2024-03-02T06:34:07;7.50;;;7.20;;
41099;SDS011;26844;53.686;-6.346;2024-03-02T06:36:33;6.78;;;6.57;;
41099;SDS011;26844;53.686;-6.346;2024-03-02T06:38:58;7.28;;;6.97;;
41099;SDS011;26844;53.686;-6.346;2024-03-02T06:41:24;8.13;;;7.82;;
41099;SDS011;26844;53.686;-6.346;2024-03-02T06:43:49;7.60;;;7.30;;
41099;SDS011;26844;53.686;-6.346;2024-03-02T06:46:14;7.63;;;7.32;;
41099;SDS011;26844;53.686;-6.346;2024-03-02T06:48:40;7.43;;;7.13;;
41099;SDS011;26844;53.686;-6.346;2024-03-02T06:51:05;7.90;;;7.60;;
41099;SDS011;26844;53.686;-6.346;2024-03-02T06:53:30;8.05;;;7.75;;
41099;SDS011;26844;53.686;-6.346;2024-03-02T06:55:58;7.78;;;7.47;;
41099;SDS011;26844;53.686;-6.346;2024-03-02T06:58:23;8.10;;;7.80;;
41099;SDS011;26844;53.686;-6.346;2024-03-02T07:00:49;8.25;;;7.95;;
41099;SDS011;26844;53.686;-6.346;2024-03-02T07:03:14;7.80;;;7.50;;
41099;SDS011;26844;53.686;-6.346;2024-03-02T07:05:39;7.93;;;7.63;;
41099;SDS011;26844;53.686;-6.346;2024-03-02T07:08:05;7.93;;;7.63;;
41099;SDS011;26844;53.686;-6.346;2024-03-02T07:10:32;8.15;;;7.85;;
41099;SDS011;26844;53.686;-6.346;2024-03-02T07:12:57;7.90;;;7.60;;
41099;SDS011;26844;53.686;-6.346;2024-03-02T07:15:22;7.63;;;7.32;;
41099;SDS011;26844;53.686;-6.346;2024-03-02T07:18:13;7.80;;;7.50;;
41099;SDS011;26844;53.686;-6.346;2024-03-02T07:20:39;7.45;;;7.15;;
41099;SDS011;26844;53.686;-6.346;2024-03-02T07:23:04;7.82;;;7.53;;
41099;SDS011;26844;53.686;-6.346;2024-03-02T07:25:29;7.30;;;7.00;;
41099;SDS011;26844;53.686;-6.346;2024-03-02T07:27:55;6.88;;;6.68;;
41099;SDS011;26844;53.686;-6.346;2024-03-02T07:30:20;6.95;;;6.75;;
41099;SDS011;26844;53.686;-6.346;2024-03-02T07:32:45;7.15;;;6.93;;
41099;SDS011;26844;53.686;-6.346;2024-03-02T07:35:12;6.93;;;6.72;;
41099;SDS011;26844;53.686;-6.346;2024-03-02T07:37:37;7.03;;;6.82;;
41099;SDS011;26844;53.686;-6.346;2024-03-02T07:40:02;6.72;;;6.53;;
41099;SDS011;26844;53.686;-6.346;2024-03-02T07:42:28;6.80;;;6.60;;
41099;SDS011;26844;53.686;-6.346;2024-03-02T07:44:54;6.68;;;6.47;;
41099;SDS011;26844;53.686;-6.346;2024-03-02T07:47:19;6.65;;;6.45;;
41099;SDS011;26844;53.686;-6.346;2024-03-02T07:49:44;6.18;;;5.97;;
41099;SDS011;26844;53.686;-6.346;2024-03-02T07:52:11;6.63;;;6.43;;
41099;SDS011;26844;53.686;-6.346;2024-03-02T07:54:36;6.10;;;5.90;;
41099;SDS011;26844;53.686;-6.346;2024-03-02T07:57:01;6.13;;;5.93;;
41099;SDS011;26844;53.686;-6.346;2024-03-02T07:59:27;6.10;;;5.90;;
41099;SDS011;26844;53.686;-6.346;2024-03-02T08:01:55;6.28;;;6.07;;
41099;SDS011;26844;53.686;-6.346;2024-03-02T08:04:20;6.65;;;6.45;;
41099;SDS011;26844;53.686;-6.346;2024-03-02T08:06:45;6.03;;;5.82;;
41099;SDS011;26844;53.686;-6.346;2024-03-02T08:09:11;6.30;;;6.10;;
41099;SDS011;26844;53.686;-6.346;2024-03-02T08:11:36;5.93;;;5.72;;
41099;SDS011;26844;53.686;-6.346;2024-03-02T08:14:02;5.90;;;5.70;;
41099;SDS011;26844;53.686;-6.346;2024-03-02T08:16:28;5.85;;;5.65;;
41099;SDS011;26844;53.686;-6.346;2024-03-02T08:18:53;5.82;;;5.63;;
41099;SDS011;26844;53.686;-6.346;2024-03-02T08:21:19;5.65;;;5.45;;
41099;SDS011;26844;53.686;-6.346;2024-03-02T08:23:44;5.13;;;4.93;;
41099;SDS011;26844;53.686;-6.346;2024-03-02T08:26:10;5.93;;;5.72;;
41099;SDS011;26844;53.686;-6.346;2024-03-02T08:28:35;5.22;;;5.03;;
41099;SDS011;26844;53.686;-6.346;2024-03-02T08:31:05;5.68;;;5.47;;
41099;SDS011;26844;53.686;-6.346;2024-03-02T08:33:31;5.50;;;5.30;;
41099;SDS011;26844;53.686;-6.346;2024-03-02T08:35:56;5.70;;;5.50;;
41099;SDS011;26844;53.686;-6.346;2024-03-02T08:38:21;5.32;;;5.13;;
41099;SDS011;26844;53.686;-6.346;2024-03-02T08:40:47;5.50;;;5.30;;
41099;SDS011;26844;53.686;-6.346;2024-03-02T08:43:12;5.05;;;4.85;;
41099;SDS011;26844;53.686;-6.346;2024-03-02T08:45:38;5.18;;;4.97;;
41099;SDS011;26844;53.686;-6.346;2024-03-02T08:48:04;5.35;;;5.15;;
41099;SDS011;26844;53.686;-6.346;2024-03-02T08:50:30;4.97;;;4.78;;
41099;SDS011;26844;53.686;-6.346;2024-03-02T08:52:55;4.63;;;4.53;;
41099;SDS011;26844;53.686;-6.346;2024-03-02T08:55:20;4.40;;;4.30;;
41099;SDS011;26844;53.686;-6.346;2024-03-02T08:57:46;4.22;;;4.13;;
41099;SDS011;26844;53.686;-6.346;2024-03-02T09:00:11;4.63;;;4.53;;
41099;SDS011;26844;53.686;-6.346;2024-03-02T09:02:36;4.13;;;4.03;;
41099;SDS011;26844;53.686;-6.346;2024-03-02T09:05:02;3.83;;;3.72;;
41099;SDS011;26844;53.686;-6.346;2024-03-02T09:07:28;4.20;;;4.10;;
41099;SDS011;26844;53.686;-6.346;2024-03-02T09:09:53;4.30;;;4.20;;
41099;SDS011;26844;53.686;-6.346;2024-03-02T09:12:18;4.13;;;4.03;;
41099;SDS011;26844;53.686;-6.346;2024-03-02T09:14:44;4.13;;;4.03;;
41099;SDS011;26844;53.686;-6.346;2024-03-02T09:17:10;3.55;;;3.45;;
41099;SDS011;26844;53.686;-6.346;2024-03-02T09:19:36;3.72;;;3.63;;
41099;SDS011;26844;53.686;-6.346;2024-03-02T09:22:01;3.42;;;3.33;;
41099;SDS011;26844;53.686;-6.346;2024-03-02T09:24:28;3.30;;;3.20;;
41099;SDS011;26844;53.686;-6.346;2024-03-02T09:26:53;3.28;;;3.17;;
41099;SDS011;26844;53.686;-6.346;2024-03-02T09:29:19;3.75;;;3.65;;
41099;SDS011;26844;53.686;-6.346;2024-03-02T09:31:45;3.90;;;3.80;;
41099;SDS011;26844;53.686;-6.346;2024-03-02T09:34:11;3.10;;;3.00;;
41099;SDS011;26844;53.686;-6.346;2024-03-02T09:36:37;3.47;;;3.38;;
41099;SDS011;26844;53.686;-6.346;2024-03-02T09:39:02;3.17;;;3.08;;
41099;SDS011;26844;53.686;-6.346;2024-03-02T09:41:28;3.10;;;3.00;;
41099;SDS011;26844;53.686;-6.346;2024-03-02T09:43:54;3.58;;;3.47;;
41099;SDS011;26844;53.686;-6.346;2024-03-02T09:46:20;3.45;;;3.35;;
41099;SDS011;26844;53.686;-6.346;2024-03-02T09:48:45;3.15;;;3.05;;
41099;SDS011;26844;53.686;-6.346;2024-03-02T09:51:10;3.03;;;2.92;;
41099;SDS011;26844;53.686;-6.346;2024-03-02T09:53:36;2.10;;;2.10;;
41099;SDS011;26844;53.686;-6.346;2024-03-02T09:56:02;2.10;;;2.10;;
41099;SDS011;26844;53.686;-6.346;2024-03-02T09:58:27;2.00;;;2.00;;
41099;SDS011;26844;53.686;-6.346;2024-03-02T10:00:54;2.13;;;2.13;;
41099;SDS011;26844;53.686;-6.346;2024-03-02T10:03:19;1.70;;;1.70;;
41099;SDS011;26844;53.686;-6.346;2024-03-02T10:05:46;2.00;;;2.00;;
41099;SDS011;26844;53.686;-6.346;2024-03-02T10:08:11;2.00;;;2.00;;
41099;SDS011;26844;53.686;-6.346;2024-03-02T10:10:40;2.05;;;2.05;;
41099;SDS011;26844;53.686;-6.346;2024-03-02T10:13:08;1.90;;;1.90;;
41099;SDS011;26844;53.686;-6.346;2024-03-02T10:15:34;2.10;;;2.10;;
41099;SDS011;26844;53.686;-6.346;2024-03-02T10:17:59;1.80;;;1.80;;
41099;SDS011;26844;53.686;-6.346;2024-03-02T10:20:25;1.92;;;1.92;;
41099;SDS011;26844;53.686;-6.346;2024-03-02T10:22:50;2.20;;;2.20;;
41099;SDS011;26844;53.686;-6.346;2024-03-02T10:25:29;2.05;;;2.05;;
41099;SDS011;26844;53.686;-6.346;2024-03-02T10:27:56;2.20;;;2.20;;
41099;SDS011;26844;53.686;-6.346;2024-03-02T10:30:22;2.50;;;2.40;;
41099;SDS011;26844;53.686;-6.346;2024-03-02T10:32:48;2.60;;;2.50;;
41099;SDS011;26844;53.686;-6.346;2024-03-02T10:35:14;2.60;;;2.50;;
41099;SDS011;26844;53.686;-6.346;2024-03-02T10:37:40;2.97;;;2.88;;
41099;SDS011;26844;53.686;-6.346;2024-03-02T10:40:06;2.55;;;2.45;;
41099;SDS011;26844;53.686;-6.346;2024-03-02T10:42:33;2.20;;;2.20;;
41099;SDS011;26844;53.686;-6.346;2024-03-02T10:44:58;2.70;;;2.60;;
41099;SDS011;26844;53.686;-6.346;2024-03-02T10:47:23;2.10;;;2.10;;
41099;SDS011;26844;53.686;-6.346;2024-03-02T10:49:52;2.35;;;2.33;;
41099;SDS011;26844;53.686;-6.346;2024-03-02T10:52:17;2.25;;;2.25;;
41099;SDS011;26844;53.686;-6.346;2024-03-02T10:54:43;2.25;;;2.25;;
41099;SDS011;26844;53.686;-6.346;2024-03-02T10:57:08;1.92;;;1.92;;
41099;SDS011;26844;53.686;-6.346;2024-03-02T10:59:36;1.85;;;1.85;;
41099;SDS011;26844;53.686;-6.346;2024-03-02T11:02:04;1.92;;;1.92;;
41099;SDS011;26844;53.686;-6.346;2024-03-02T11:04:33;1.80;;;1.80;;
41099;SDS011;26844;53.686;-6.346;2024-03-02T11:07:02;1.90;;;1.90;;
41099;SDS011;26844;53.686;-6.346;2024-03-02T11:09:28;1.92;;;1.92;;
41099;SDS011;26844;53.686;-6.346;2024-03-02T11:12:03;2.60;;;2.50;;
41099;SDS011;26844;53.686;-6.346;2024-03-02T11:14:31;1.38;;;1.38;;
41099;SDS011;26844;53.686;-6.346;2024-03-02T11:17:00;1.77;;;1.77;;
41099;SDS011;26844;53.686;-6.346;2024-03-02T11:19:26;2.50;;;2.40;;
41099;SDS011;26844;53.686;-6.346;2024-03-02T11:21:52;1.95;;;1.95;;
41099;SDS011;26844;53.686;-6.346;2024-03-02T11:26:46;1.90;;;1.90;;
41099;SDS011;26844;53.686;-6.346;2024-03-02T11:31:59;2.05;;;2.05;;
41099;SDS011;26844;53.686;-6.346;2024-03-02T11:34:33;1.98;;;1.98;;
41099;SDS011;26844;53.686;-6.346;2024-03-02T11:37:02;1.90;;;1.90;;
41099;SDS011;26844;53.686;-6.346;2024-03-02T11:39:29;1.85;;;1.85;;
41099;SDS011;26844;53.686;-6.346;2024-03-02T11:41:55;1.52;;;1.52;;
41099;SDS011;26844;53.686;-6.346;2024-03-02T11:44:20;1.80;;;1.80;;
41099;SDS011;26844;53.686;-6.346;2024-03-02T11:46:53;1.50;;;1.50;;
41099;SDS011;26844;53.686;-6.346;2024-03-02T11:49:38;1.40;;;1.40;;
41099;SDS011;26844;53.686;-6.346;2024-03-02T11:52:04;1.60;;;1.60;;
41099;SDS011;26844;53.686;-6.346;2024-03-02T11:54:30;1.23;;;1.23;;
41099;SDS011;26844;53.686;-6.346;2024-03-02T11:56:58;1.60;;;1.60;;
41099;SDS011;26844;53.686;-6.346;2024-03-02T11:59:23;1.50;;;1.50;;
41099;SDS011;26844;53.686;-6.346;2024-03-02T12:01:49;1.60;;;1.60;;
41099;SDS011;26844;53.686;-6.346;2024-03-02T12:04:14;1.55;;;1.55;;
41099;SDS011;26844;53.686;-6.346;2024-03-02T12:06:40;1.65;;;1.65;;
41099;SDS011;26844;53.686;-6.346;2024-03-02T12:09:07;1.27;;;1.27;;
41099;SDS011;26844;53.686;-6.346;2024-03-02T12:11:36;1.27;;;1.27;;
41099;SDS011;26844;53.686;-6.346;2024-03-02T12:14:02;1.30;;;1.30;;
41099;SDS011;26844;53.686;-6.346;2024-03-02T12:16:27;1.20;;;1.20;;
41099;SDS011;26844;53.686;-6.346;2024-03-02T12:18:54;1.30;;;1.30;;
41099;SDS011;26844;53.686;-6.346;2024-03-02T12:21:19;1.50;;;1.50;;
41099;SDS011;26844;53.686;-6.346;2024-03-02T12:23:44;1.73;;;1.73;;
41099;SDS011;26844;53.686;-6.346;2024-03-02T12:26:09;1.23;;;1.23;;
41099;SDS011;26844;53.686;-6.346;2024-03-02T12:28:35;1.42;;;1.42;;
41099;SDS011;26844;53.686;-6.346;2024-03-02T12:31:00;1.40;;;1.40;;
41099;SDS011;26844;53.686;-6.346;2024-03-02T12:33:25;1.70;;;1.70;;
41099;SDS011;26844;53.686;-6.346;2024-03-02T12:35:52;1.20;;;1.20;;
41099;SDS011;26844;53.686;-6.346;2024-03-02T12:38:17;1.50;;;1.50;;
41099;SDS011;26844;53.686;-6.346;2024-03-02T12:40:42;1.40;;;1.40;;
41099;SDS011;26844;53.686;-6.346;2024-03-02T12:43:08;1.45;;;1.45;;
41099;SDS011;26844;53.686;-6.346;2024-03-02T12:45:34;1.73;;;1.73;;
41099;SDS011;26844;53.686;-6.346;2024-03-02T12:47:59;1.55;;;1.55;;
41099;SDS011;26844;53.686;-6.346;2024-03-02T12:50:25;1.63;;;1.63;;
41099;SDS011;26844;53.686;-6.346;2024-03-02T12:52:51;1.45;;;1.45;;
41099;SDS011;26844;53.686;-6.346;2024-03-02T12:55:16;1.30;;;1.30;;
41099;SDS011;26844;53.686;-6.346;2024-03-02T12:57:42;1.42;;;1.42;;
41099;SDS011;26844;53.686;-6.346;2024-03-02T13:00:08;1.20;;;1.20;;
41099;SDS011;26844;53.686;-6.346;2024-03-02T13:02:39;1.60;;;1.60;;
41099;SDS011;26844;53.686;-6.346;2024-03-02T13:05:05;1.33;;;1.33;;
41099;SDS011;26844;53.686;-6.346;2024-03-02T13:07:31;1.42;;;1.42;;
41099;SDS011;26844;53.686;-6.346;2024-03-02T13:09:57;1.52;;;1.52;;
41099;SDS011;26844;53.686;-6.346;2024-03-02T13:12:23;1.30;;;1.30;;
41099;SDS011;26844;53.686;-6.346;2024-03-02T13:14:52;1.10;;;1.10;;
41099;SDS011;26844;53.686;-6.346;2024-03-02T13:17:18;1.02;;;1.02;;
41099;SDS011;26844;53.686;-6.346;2024-03-02T13:19:53;1.15;;;1.15;;
41099;SDS011;26844;53.686;-6.346;2024-03-02T13:22:18;1.40;;;1.40;;
41099;SDS011;26844;53.686;-6.346;2024-03-02T13:24:43;1.50;;;1.50;;
41099;SDS011;26844;53.686;-6.346;2024-03-02T13:27:08;1.70;;;1.70;;
41099;SDS011;26844;53.686;-6.346;2024-03-02T13:29:34;1.10;;;1.10;;
41099;SDS011;26844;53.686;-6.346;2024-03-02T13:31:59;1.30;;;1.30;;
41099;SDS011;26844;53.686;-6.346;2024-03-02T13:34:24;1.50;;;1.50;;
41099;SDS011;26844;53.686;-6.346;2024-03-02T13:36:50;1.60;;;1.60;;
41099;SDS011;26844;53.686;-6.346;2024-03-02T13:39:15;1.52;;;1.52;;
41099;SDS011;26844;53.686;-6.346;2024-03-02T13:41:41;1.63;;;1.63;;
41099;SDS011;26844;53.686;-6.346;2024-03-02T13:44:06;1.70;;;1.70;;
41099;SDS011;26844;53.686;-6.346;2024-03-02T13:46:31;1.40;;;1.40;;
41099;SDS011;26844;53.686;-6.346;2024-03-02T13:48:57;1.50;;;1.50;;
41099;SDS011;26844;53.686;-6.346;2024-03-02T13:51:23;1.58;;;1.58;;
41099;SDS011;26844;53.686;-6.346;2024-03-02T13:53:48;1.80;;;1.80;;
41099;SDS011;26844;53.686;-6.346;2024-03-02T13:56:13;1.70;;;1.70;;
41099;SDS011;26844;53.686;-6.346;2024-03-02T13:58:38;1.60;;;1.60;;
41099;SDS011;26844;53.686;-6.346;2024-03-02T14:01:04;1.65;;;1.65;;
41099;SDS011;26844;53.686;-6.346;2024-03-02T14:03:30;1.55;;;1.55;;
41099;SDS011;26844;53.686;-6.346;2024-03-02T14:05:56;1.67;;;1.67;;
41099;SDS011;26844;53.686;-6.346;2024-03-02T14:08:21;1.58;;;1.58;;
41099;SDS011;26844;53.686;-6.346;2024-03-02T14:10:46;1.33;;;1.33;;
41099;SDS011;26844;53.686;-6.346;2024-03-02T14:13:12;1.73;;;1.73;;
41099;SDS011;26844;53.686;-6.346;2024-03-02T14:15:37;2.20;;;2.20;;
41099;SDS011;26844;53.686;-6.346;2024-03-02T14:18:04;2.80;;;2.70;;
41099;SDS011;26844;53.686;-6.346;2024-03-02T14:20:30;2.70;;;2.60;;
41099;SDS011;26844;53.686;-6.346;2024-03-02T14:22:55;3.03;;;2.92;;
41099;SDS011;26844;53.686;-6.346;2024-03-02T14:25:20;2.20;;;2.20;;
41099;SDS011;26844;53.686;-6.346;2024-03-02T14:27:46;1.90;;;1.90;;
41099;SDS011;26844;53.686;-6.346;2024-03-02T14:30:12;1.90;;;1.90;;
41099;SDS011;26844;53.686;-6.346;2024-03-02T14:32:37;2.10;;;2.10;;
41099;SDS011;26844;53.686;-6.346;2024-03-02T14:35:02;1.90;;;1.90;;